Sidney, TX (76474)

2:02 AM CDT on August 26, 2016 (GMT -0500)
West of Sidney | | Change Station

Elev 1483 ft 31.94 °N, 98.77 °W | Updated 9 minutes ago

Clear
Clear
75.0 °F
Feels Like 76 °F
N
2.7
Wind Variable Wind from SSW

Today
High -- | Low -- °F
--% Chance of Precip.
Yesterday
High -- | Low -- °F
Precip. -- in
Pressure 30.08 in
Visibility 10.0 miles
Clouds Clear
Heat Index 76 °F
Dew Point 68 °F
Humidity 80%
Rainfall 0.00 in
Snow Depth Not available.
7:07 AM 8:05 PM
Last Quarter, 37% visible
METAR KMKN 260655Z AUTO 15004KT 10SM CLR 23/21 A3008 RMK AO2 T02300205
Pressure 30.08 in
Visibility 10.0 miles
Clouds Clear
Heat Index 76 °F
Dew Point 68 °F
Humidity 80%
Rainfall 0.00 in
Snow Depth Not available.
7:07 AM 8:05 PM
Last Quarter, 37% visible
METAR KMKN 260655Z AUTO 15004KT 10SM CLR 23/21 A3008 RMK AO2 T02300205

10-Day Weather Forecast

Almanac

Astronomy

Aug. 26, 2016 Rise Set
Actual Time
Civil Twilight
Nautical Twilight
Astronomical Twilight
Moon
Length of Visible Light
Length of Day
Tomorrow will be .
, % of the Moon is Illuminated

Today's Extremes

State Highs State Lows

Community

WunderPhotos

Upload Photos

1,935,063 photos uploaded!

WunderBlog® & News

Nearby

Air Quality

  Air Quality AQ Index Pollutant
Not available.

Snow Depth

Station Depth Elevation

Earthquake Activity

City Distance Mag. Time & Date
Minimum magnitude displayed is 2.5.

Coastal Water Temperatures

Place Temperature

Stations

Nearby Weather Stations

Station Location Temp. Windchill Dew Point Humidity Wind Precip. Elev Updated Type
                   

Watches & Warnings

There are currently no watches in effect.